createdAt,value
2022-09-26T00:01:16.686Z,12.50
2022-09-26T00:03:45.590Z,12.82
2022-09-26T00:06:12.894Z,11.48
2022-09-26T00:08:40.505Z,12.75
2022-09-26T00:11:09.206Z,11.98
2022-09-26T00:13:38.147Z,12.13
2022-09-26T00:16:05.781Z,12.05
2022-09-26T00:18:32.928Z,10.85
2022-09-26T00:21:04.452Z,11.40
2022-09-26T00:23:31.395Z,10.63
2022-09-26T00:26:00.967Z,11.43
2022-09-26T00:28:28.880Z,10.00
2022-09-26T00:30:56.746Z,9.73
2022-09-26T00:33:24.288Z,9.45
2022-09-26T00:35:52.504Z,9.48
2022-09-26T00:38:19.588Z,9.45
2022-09-26T00:40:47.546Z,10.32
2022-09-26T00:43:43.430Z,10.18
2022-09-26T00:46:32.651Z,8.70
2022-09-26T00:49:24.008Z,9.70
2022-09-26T00:51:56.221Z,9.65
2022-09-26T00:54:24.017Z,8.95
2022-09-26T00:56:53.744Z,9.57
2022-09-26T00:59:27.234Z,9.00
2022-09-26T01:01:56.280Z,7.90
2022-09-26T01:04:26.040Z,9.25
2022-09-26T01:06:53.600Z,8.80
2022-09-26T01:09:20.888Z,8.38
2022-09-26T01:11:48.095Z,9.13
2022-09-26T01:14:15.837Z,8.73
2022-09-26T01:16:48.044Z,8.35
2022-09-26T01:19:29.541Z,10.07
2022-09-26T01:21:59.374Z,8.18
2022-09-26T01:24:28.815Z,7.90
2022-09-26T01:27:17.287Z,8.65
2022-09-26T01:30:07.860Z,7.88
2022-09-26T01:33:00.851Z,8.55
2022-09-26T01:35:36.580Z,7.80
2022-09-26T01:38:31.859Z,7.95
2022-09-26T01:41:21.409Z,6.97
2022-09-26T01:44:26.669Z,8.55
2022-09-26T01:47:32.509Z,8.00
2022-09-26T01:50:34.966Z,7.65
2022-09-26T01:53:20.848Z,8.43
2022-09-26T01:55:54.606Z,7.72
2022-09-26T01:58:30.977Z,7.93
2022-09-26T02:01:02.648Z,8.00
2022-09-26T02:03:35.473Z,8.35
2022-09-26T02:06:12.622Z,7.32
2022-09-26T02:08:43.972Z,7.50
2022-09-26T02:11:13.810Z,7.43
2022-09-26T02:13:51.863Z,8.02
2022-09-26T02:16:30.005Z,7.32
2022-09-26T02:19:26.003Z,7.82
2022-09-26T02:21:53.920Z,7.07
2022-09-26T02:24:22.232Z,7.50
2022-09-26T02:26:50.721Z,7.10
2022-09-26T02:29:17.942Z,7.25
2022-09-26T02:32:12.796Z,7.80
2022-09-26T02:34:45.019Z,7.32
2022-09-26T02:37:13.468Z,7.30
2022-09-26T02:39:42.599Z,7.50
2022-09-26T02:42:40.145Z,7.45
2022-09-26T02:45:34.268Z,7.32
2022-09-26T02:48:28.174Z,7.80
2022-09-26T02:51:24.586Z,8.00
2022-09-26T02:54:26.038Z,8.20
2022-09-26T02:57:11.694Z,7.72
2022-09-26T03:00:04.829Z,6.93
2022-09-26T03:02:50.494Z,7.57
2022-09-26T03:05:24.254Z,7.50
2022-09-26T03:08:01.003Z,6.95
2022-09-26T03:10:30.501Z,7.32
2022-09-26T03:13:06.524Z,7.18
2022-09-26T03:15:35.677Z,6.72
2022-09-26T03:18:06.517Z,7.60
2022-09-26T03:20:33.247Z,7.28
2022-09-26T03:23:02.066Z,7.00
2022-09-26T03:25:28.919Z,6.88
2022-09-26T03:27:56.152Z,7.38
2022-09-26T03:30:23.465Z,8.02
2022-09-26T03:32:50.329Z,6.95
2022-09-26T03:35:17.209Z,6.95
2022-09-26T03:37:44.004Z,7.68
2022-09-26T03:40:12.441Z,7.47
2022-09-26T03:42:39.299Z,7.68
2022-09-26T03:45:09.304Z,7.90
2022-09-26T03:47:38.336Z,7.50
2022-09-26T03:50:06.604Z,7.28
2022-09-26T03:52:33.776Z,7.68
2022-09-26T03:55:00.584Z,7.70
2022-09-26T03:57:27.379Z,8.00
2022-09-26T03:59:55.233Z,8.35
2022-09-26T04:02:22.636Z,8.70
2022-09-26T04:04:49.547Z,8.57
2022-09-26T04:07:16.455Z,8.90
2022-09-26T04:09:43.173Z,8.02
2022-09-26T04:12:09.916Z,8.45
2022-09-26T04:14:36.741Z,8.38
2022-09-26T04:17:03.502Z,8.68
2022-09-26T04:19:30.278Z,8.55
2022-09-26T04:21:57.215Z,9.55
2022-09-26T04:24:23.976Z,9.25
2022-09-26T04:26:50.742Z,9.75
2022-09-26T04:29:17.571Z,10.13
2022-09-26T04:31:44.344Z,10.38
2022-09-26T04:34:11.575Z,10.48
2022-09-26T04:36:38.591Z,10.90
2022-09-26T04:39:05.677Z,10.48
2022-09-26T04:41:32.534Z,12.20
2022-09-26T04:44:01.117Z,10.75
2022-09-26T04:46:30.983Z,12.23
2022-09-26T04:48:59.584Z,11.55
2022-09-26T04:51:27.718Z,10.50
2022-09-26T04:53:54.492Z,11.23
2022-09-26T04:56:22.686Z,11.90
2022-09-26T04:58:50.044Z,11.65
2022-09-26T05:01:21.514Z,11.27
2022-09-26T05:03:48.707Z,11.00
2022-09-26T05:06:17.698Z,11.35
2022-09-26T05:08:46.851Z,11.98
2022-09-26T05:11:16.263Z,11.25
2022-09-26T05:13:43.780Z,11.50
2022-09-26T05:16:12.446Z,10.55
2022-09-26T05:18:39.555Z,12.15
2022-09-26T05:21:07.580Z,10.65
2022-09-26T05:23:54.241Z,11.25
2022-09-26T05:26:28.429Z,11.43
2022-09-26T05:29:06.856Z,10.65
2022-09-26T05:31:37.918Z,10.45
2022-09-26T05:34:07.634Z,11.35
2022-09-26T05:36:34.734Z,11.48
2022-09-26T05:39:01.782Z,11.68
2022-09-26T05:41:30.095Z,11.10
2022-09-26T05:43:57.246Z,12.45
2022-09-26T05:46:25.844Z,11.70
2022-09-26T05:48:52.772Z,11.38
2022-09-26T05:51:21.634Z,12.50
2022-09-26T05:53:49.560Z,12.32
2022-09-26T05:56:19.618Z,12.50
2022-09-26T05:58:47.274Z,12.02
2022-09-26T06:01:16.744Z,11.65
2022-09-26T06:03:47.498Z,11.95
2022-09-26T06:06:19.035Z,13.32
2022-09-26T06:08:46.929Z,11.57
2022-09-26T06:11:16.422Z,11.60
2022-09-26T06:13:45.891Z,12.88
2022-09-26T06:16:15.916Z,12.85
2022-09-26T06:18:42.766Z,12.40
2022-09-26T06:21:11.700Z,12.55
2022-09-26T06:23:38.759Z,13.00
2022-09-26T06:26:11.134Z,13.25
2022-09-26T06:28:39.014Z,12.68
2022-09-26T06:31:13.454Z,13.50
2022-09-26T06:33:40.567Z,12.02
2022-09-26T06:36:09.985Z,12.05
2022-09-26T06:38:38.062Z,12.35
2022-09-26T06:41:07.450Z,10.95
2022-09-26T06:43:34.583Z,12.02
2022-09-26T06:46:01.587Z,11.57
2022-09-26T06:48:28.442Z,12.02
2022-09-26T06:51:00.374Z,11.80
2022-09-26T06:53:27.965Z,10.90
2022-09-26T06:55:55.012Z,12.20
2022-09-26T06:58:21.921Z,10.77
2022-09-26T07:00:48.822Z,11.77
2022-09-26T07:03:15.956Z,12.38
2022-09-26T07:05:44.882Z,11.38
2022-09-26T07:08:11.917Z,10.43
2022-09-26T07:10:38.834Z,11.52
2022-09-26T07:13:07.449Z,10.68
2022-09-26T07:15:36.110Z,10.30
2022-09-26T07:18:04.968Z,9.93
2022-09-26T07:20:34.429Z,9.60
2022-09-26T07:23:04.926Z,9.88
2022-09-26T07:25:32.173Z,8.52
2022-09-26T07:27:59.442Z,9.80
2022-09-26T07:30:26.609Z,9.38
2022-09-26T07:32:56.949Z,8.95
2022-09-26T07:35:24.885Z,9.85
2022-09-26T07:37:52.992Z,9.52
2022-09-26T07:40:22.742Z,9.27
2022-09-26T07:43:04.261Z,9.38
2022-09-26T07:45:55.321Z,8.27
2022-09-26T07:48:40.937Z,8.93
2022-09-26T07:51:11.379Z,8.68
2022-09-26T07:53:41.145Z,9.95
2022-09-26T07:56:11.265Z,9.38
2022-09-26T07:58:42.339Z,8.75
2022-09-26T08:01:16.713Z,9.43
2022-09-26T08:03:50.115Z,8.80
2022-09-26T08:06:21.030Z,10.23
2022-09-26T08:08:48.273Z,9.32
2022-09-26T08:11:17.593Z,9.02
2022-09-26T08:13:45.295Z,8.70
2022-09-26T08:16:14.728Z,8.80
2022-09-26T08:18:41.639Z,9.15
2022-09-26T08:21:08.494Z,9.20
2022-09-26T08:23:35.604Z,10.07
2022-09-26T08:26:07.169Z,11.50
2022-09-26T08:28:38.475Z,9.43
2022-09-26T08:31:06.653Z,10.95
2022-09-26T08:33:35.432Z,10.68
2022-09-26T08:36:07.090Z,12.48
2022-09-26T08:38:35.443Z,12.23
2022-09-26T08:41:14.133Z,12.10
2022-09-26T08:43:57.798Z,13.05
2022-09-26T08:46:55.335Z,14.27
2022-09-26T08:49:24.914Z,15.07
2022-09-26T08:51:58.819Z,18.77
2022-09-26T08:54:45.086Z,16.90
2022-09-26T08:59:54.628Z,16.13
2022-09-26T09:02:21.418Z,15.20
2022-09-26T09:05:26.806Z,15.07
2022-09-26T09:07:56.738Z,14.60
2022-09-26T09:10:44.351Z,14.52
2022-09-26T09:13:18.748Z,12.57
2022-09-26T09:16:21.866Z,11.32
2022-09-26T09:18:48.553Z,11.45
2022-09-26T09:21:32.122Z,11.52
2022-09-26T09:24:21.146Z,10.90
2022-09-26T09:29:49.161Z,10.38
2022-09-26T09:32:22.200Z,9.68
2022-09-26T09:34:53.685Z,10.00
2022-09-26T09:37:28.568Z,9.80
2022-09-26T09:39:56.980Z,10.10
2022-09-26T09:42:34.059Z,9.95
2022-09-26T09:45:03.401Z,10.30
2022-09-26T09:47:30.504Z,11.13
2022-09-26T09:49:59.763Z,11.82
2022-09-26T09:52:32.234Z,10.98
2022-09-26T09:55:29.714Z,10.77
2022-09-26T09:58:20.537Z,10.15
2022-09-26T10:01:01.982Z,10.10
2022-09-26T10:03:49.034Z,10.15
2022-09-26T10:06:44.681Z,10.23
2022-09-26T10:09:35.318Z,9.65
2022-09-26T10:12:28.903Z,9.30
2022-09-26T10:15:07.608Z,11.50
2022-09-26T10:17:35.451Z,10.43
2022-09-26T10:20:02.369Z,9.63
2022-09-26T10:22:37.948Z,9.63
2022-09-26T10:25:21.743Z,9.02
2022-09-26T10:27:53.410Z,8.77
2022-09-26T10:30:31.941Z,6.75
2022-09-26T10:33:00.570Z,7.47
2022-09-26T10:35:40.224Z,7.22
2022-09-26T10:38:18.479Z,6.97
2022-09-26T10:40:54.817Z,6.65
2022-09-26T10:43:30.865Z,7.90
2022-09-26T10:46:13.657Z,7.07
2022-09-26T10:48:56.355Z,6.47
2022-09-26T10:51:29.818Z,5.75
2022-09-26T10:54:04.872Z,6.45
2022-09-26T10:56:37.061Z,5.70
2022-09-26T10:59:07.469Z,6.75
2022-09-26T11:01:39.189Z,6.13
2022-09-26T11:04:40.097Z,5.38
2022-09-26T11:07:10.829Z,6.20
2022-09-26T11:09:38.437Z,6.28
2022-09-26T11:12:26.558Z,6.43
2022-09-26T11:14:57.570Z,5.80
2022-09-26T11:17:45.326Z,5.28
2022-09-26T11:20:50.591Z,5.93
2022-09-26T11:23:44.869Z,5.07
2022-09-26T11:26:18.133Z,4.90
2022-09-26T11:29:02.149Z,4.53
2022-09-26T11:31:34.486Z,5.07
2022-09-26T11:34:04.448Z,5.35
2022-09-26T11:36:36.959Z,7.50
2022-09-26T11:39:33.694Z,7.80
2022-09-26T11:42:25.909Z,8.93
2022-09-26T11:45:04.653Z,7.43
2022-09-26T11:47:43.288Z,7.85
2022-09-26T11:50:35.595Z,8.35
2022-09-26T11:53:20.511Z,7.78
2022-09-26T11:56:19.418Z,7.20
2022-09-26T11:59:02.232Z,8.10
2022-09-26T12:01:55.141Z,8.15
2022-09-26T12:04:30.986Z,8.18
2022-09-26T12:07:03.668Z,9.23
2022-09-26T12:09:59.733Z,8.80
2022-09-26T12:12:28.134Z,9.93
2022-09-26T12:15:32.392Z,9.07
2022-09-26T12:18:17.641Z,10.18
2022-09-26T12:21:12.308Z,8.63
2022-09-26T12:23:52.167Z,9.55
2022-09-26T12:26:51.767Z,8.82
2022-09-26T12:29:48.568Z,8.63
2022-09-26T12:32:27.637Z,8.20
2022-09-26T12:35:08.034Z,8.40
2022-09-26T12:37:57.171Z,7.47
2022-09-26T12:40:40.589Z,7.50
2022-09-26T12:43:15.940Z,7.38
2022-09-26T12:46:01.458Z,7.47
2022-09-26T12:48:49.878Z,7.20
2022-09-26T12:51:47.258Z,6.43
2022-09-26T12:54:16.755Z,6.45
2022-09-26T12:57:13.308Z,7.05
2022-09-26T13:02:51.378Z,6.18
2022-09-26T13:05:51.653Z,5.78
2022-09-26T13:08:57.318Z,5.35
2022-09-26T13:11:43.372Z,4.38
2022-09-26T13:14:35.009Z,4.30
2022-09-26T13:17:16.789Z,4.93
2022-09-26T13:19:59.519Z,4.35
2022-09-26T13:22:41.387Z,4.43
2022-09-26T13:25:21.877Z,4.88
2022-09-26T13:27:58.482Z,4.50
2022-09-26T13:30:35.194Z,4.38
2022-09-26T13:33:42.907Z,4.28
2022-09-26T13:36:11.066Z,3.80
2022-09-26T13:38:47.262Z,4.03
2022-09-26T13:41:26.196Z,4.15
2022-09-26T13:44:17.852Z,4.53
2022-09-26T13:47:13.161Z,4.53
2022-09-26T13:50:14.989Z,3.90
2022-09-26T13:52:52.493Z,4.00
2022-09-26T13:55:21.841Z,3.67
2022-09-26T13:58:09.329Z,5.20
2022-09-26T14:00:40.544Z,4.07
2022-09-26T14:03:10.440Z,4.03
2022-09-26T14:05:43.660Z,4.40
2022-09-26T14:08:44.151Z,4.15
2022-09-26T14:11:19.888Z,3.90
2022-09-26T14:13:48.619Z,4.38
2022-09-26T14:16:27.743Z,3.75
2022-09-26T14:19:06.541Z,4.35
2022-09-26T14:21:33.459Z,4.28
2022-09-26T14:24:28.366Z,4.13
2022-09-26T14:27:24.074Z,4.22
2022-09-26T14:30:08.020Z,3.83
2022-09-26T14:32:39.785Z,3.70
2022-09-26T14:35:34.685Z,4.15
2022-09-26T14:38:13.501Z,4.10
2022-09-26T14:40:55.970Z,4.28
2022-09-26T14:43:27.768Z,4.30
2022-09-26T14:46:19.602Z,4.15
2022-09-26T14:48:46.841Z,4.80
2022-09-26T14:51:16.444Z,5.43
2022-09-26T14:53:49.224Z,6.22
2022-09-26T14:56:41.260Z,5.45
2022-09-26T14:59:35.058Z,6.30
2022-09-26T15:02:14.471Z,5.90
2022-09-26T15:04:43.558Z,5.38
2022-09-26T15:07:35.979Z,6.15
2022-09-26T15:10:35.385Z,5.25
2022-09-26T15:13:22.730Z,5.43
2022-09-26T15:16:27.766Z,5.07
2022-09-26T15:19:09.722Z,5.50
2022-09-26T15:21:48.201Z,5.43
2022-09-26T15:24:33.235Z,6.13
2022-09-26T15:27:11.548Z,5.88
2022-09-26T15:30:16.024Z,6.43
2022-09-26T15:32:43.575Z,6.25
2022-09-26T15:35:13.578Z,6.38
2022-09-26T15:37:41.384Z,7.82
2022-09-26T15:40:18.681Z,7.32
2022-09-26T15:43:08.032Z,8.07
2022-09-26T15:45:47.756Z,7.57
2022-09-26T15:48:20.753Z,8.85
2022-09-26T15:50:56.118Z,8.48
2022-09-26T15:53:39.613Z,9.05
2022-09-26T15:56:16.840Z,9.48
2022-09-26T15:58:49.215Z,10.10
2022-09-26T16:01:19.195Z,10.02
2022-09-26T16:04:21.076Z,9.73
2022-09-26T16:07:14.057Z,9.73
2022-09-26T16:09:44.011Z,10.30
2022-09-26T16:12:17.201Z,9.70
2022-09-26T16:15:07.980Z,9.80
2022-09-26T16:17:36.354Z,9.82
2022-09-26T16:20:15.293Z,9.25
2022-09-26T16:22:49.036Z,9.38
2022-09-26T16:25:15.753Z,9.45
2022-09-26T16:27:42.987Z,10.48
2022-09-26T16:30:23.905Z,10.38
2022-09-26T16:32:52.846Z,10.20
2022-09-26T16:35:30.626Z,10.27
2022-09-26T16:38:03.072Z,9.30
2022-09-26T16:40:31.503Z,9.30
2022-09-26T16:43:08.072Z,10.48
2022-09-26T16:45:34.980Z,11.60
2022-09-26T16:48:01.984Z,11.38
2022-09-26T16:50:34.059Z,10.95
2022-09-26T16:53:03.000Z,11.35
2022-09-26T16:55:34.379Z,10.75
2022-09-26T16:58:04.448Z,11.13
2022-09-26T17:00:52.834Z,12.25
2022-09-26T17:03:27.381Z,11.75
2022-09-26T17:05:55.876Z,12.60
2022-09-26T17:08:23.559Z,12.65
2022-09-26T17:10:50.480Z,12.63
2022-09-26T17:13:24.190Z,13.23
2022-09-26T17:15:55.562Z,12.75
2022-09-26T17:18:33.367Z,11.85
2022-09-26T17:21:01.235Z,12.15
2022-09-26T17:23:44.582Z,13.25
2022-09-26T17:26:19.786Z,13.38
2022-09-26T17:28:47.461Z,12.77
2022-09-26T17:31:20.265Z,13.68
2022-09-26T17:33:49.785Z,12.63
2022-09-26T17:36:28.050Z,12.20
2022-09-26T17:38:59.295Z,13.35
2022-09-26T17:41:28.038Z,12.55
2022-09-26T17:44:01.171Z,13.18
2022-09-26T17:46:28.700Z,13.23
2022-09-26T17:48:56.405Z,13.73
2022-09-26T17:51:24.172Z,12.65
2022-09-26T17:53:52.672Z,13.27
2022-09-26T17:56:20.077Z,11.82
2022-09-26T17:58:48.375Z,12.48
2022-09-26T18:01:33.855Z,11.40
2022-09-26T18:04:06.374Z,11.95
2022-09-26T18:06:33.733Z,11.77
2022-09-26T18:09:07.643Z,12.93
2022-09-26T18:11:36.330Z,11.13
2022-09-26T18:14:06.164Z,12.40
2022-09-26T18:16:33.086Z,11.88
2022-09-26T18:19:06.225Z,11.90
2022-09-26T18:21:34.394Z,11.60
2022-09-26T18:24:06.151Z,12.00
2022-09-26T18:26:47.406Z,11.68
2022-09-26T18:29:27.823Z,13.00
2022-09-26T18:31:55.363Z,13.52
2022-09-26T18:34:22.252Z,14.07
2022-09-26T18:36:50.102Z,14.00
2022-09-26T18:39:17.244Z,14.82
2022-09-26T18:41:45.315Z,14.70
2022-09-26T18:44:17.007Z,15.43
2022-09-26T18:46:46.900Z,15.20
2022-09-26T18:49:14.931Z,15.70
2022-09-26T18:51:42.337Z,15.25
2022-09-26T18:54:14.502Z,14.50
2022-09-26T18:57:00.948Z,14.05
2022-09-26T19:02:00.167Z,14.40
2022-09-26T19:04:30.448Z,14.23
2022-09-26T19:07:02.062Z,12.93
2022-09-26T19:09:33.522Z,12.88
2022-09-26T19:12:01.586Z,11.30
2022-09-26T19:14:30.435Z,10.40
2022-09-26T19:16:58.209Z,9.63
2022-09-26T19:19:26.265Z,11.43
2022-09-26T19:21:54.770Z,10.45
2022-09-26T19:24:40.903Z,10.18
2022-09-26T19:27:27.911Z,10.48
2022-09-26T19:30:02.601Z,10.52
2022-09-26T19:32:32.652Z,10.65
2022-09-26T19:35:02.537Z,11.20
2022-09-26T19:37:29.433Z,10.90
2022-09-26T19:39:57.843Z,11.65
2022-09-26T19:42:26.216Z,10.63
2022-09-26T19:44:53.269Z,12.10
2022-09-26T19:47:23.364Z,11.75
2022-09-26T19:49:52.319Z,11.40
2022-09-26T19:52:21.001Z,11.25
2022-09-26T19:54:48.830Z,11.10
2022-09-26T19:57:17.649Z,11.45
2022-09-26T19:59:45.225Z,11.30
2022-09-26T20:02:20.891Z,11.95
2022-09-26T20:04:48.165Z,11.43
2022-09-26T20:07:17.365Z,10.13
2022-09-26T20:09:44.515Z,10.73
2022-09-26T20:12:11.745Z,11.30
2022-09-26T20:14:38.575Z,11.93
2022-09-26T20:17:22.753Z,10.98
2022-09-26T20:19:50.220Z,11.38
2022-09-26T20:22:20.340Z,11.65
2022-09-26T20:24:49.241Z,11.95
2022-09-26T20:27:22.297Z,9.95
2022-09-26T20:30:09.220Z,10.80
2022-09-26T20:32:36.568Z,11.27
2022-09-26T20:35:05.390Z,11.35
2022-09-26T20:37:36.294Z,11.60
2022-09-26T20:40:06.338Z,10.38
2022-09-26T20:42:37.944Z,10.50
2022-09-26T20:45:05.068Z,10.35
2022-09-26T20:47:31.943Z,9.75
2022-09-26T20:50:01.656Z,9.68
2022-09-26T20:52:29.976Z,10.27
2022-09-26T20:54:57.586Z,10.18
2022-09-26T20:57:25.000Z,10.93
2022-09-26T20:59:52.231Z,10.30
2022-09-26T21:02:33.078Z,9.73
2022-09-26T21:05:01.802Z,9.88
2022-09-26T21:07:31.180Z,10.48
2022-09-26T21:09:58.002Z,10.07
2022-09-26T21:12:25.172Z,9.55
2022-09-26T21:14:51.951Z,9.10
2022-09-26T21:17:24.174Z,9.02
2022-09-26T21:19:51.551Z,9.02
2022-09-26T21:22:25.378Z,9.50
2022-09-26T21:24:54.031Z,9.18
2022-09-26T21:27:20.952Z,8.27
2022-09-26T21:29:47.758Z,8.88
2022-09-26T21:32:20.854Z,9.30
2022-09-26T21:34:57.220Z,8.73
2022-09-26T21:37:24.029Z,8.52
2022-09-26T21:39:51.004Z,9.32
2022-09-26T21:42:17.771Z,10.10
2022-09-26T21:44:53.264Z,8.85
2022-09-26T21:47:20.110Z,8.85
2022-09-26T21:49:46.896Z,8.73
2022-09-26T21:52:19.499Z,8.65
2022-09-26T21:54:46.367Z,8.07
2022-09-26T21:57:20.753Z,8.50
2022-09-26T21:59:49.812Z,7.80
2022-09-26T22:02:17.016Z,9.10
2022-09-26T22:04:43.907Z,8.55
2022-09-26T22:07:10.712Z,9.20
2022-09-26T22:09:38.908Z,8.80
2022-09-26T22:12:05.730Z,8.55
2022-09-26T22:14:32.489Z,8.45
2022-09-26T22:16:59.837Z,8.25
2022-09-26T22:19:27.460Z,9.32
2022-09-26T22:21:54.691Z,9.98
2022-09-26T22:24:21.570Z,8.68
2022-09-26T22:26:48.287Z,8.20
2022-09-26T22:29:15.288Z,9.38
2022-09-26T22:31:42.686Z,8.75
2022-09-26T22:34:09.564Z,9.02
2022-09-26T22:36:36.630Z,9.55
2022-09-26T22:39:04.144Z,8.98
2022-09-26T22:41:30.855Z,10.23
2022-09-26T22:43:57.702Z,10.02
2022-09-26T22:46:24.539Z,9.50
2022-09-26T22:48:51.308Z,9.27
2022-09-26T22:51:18.530Z,9.85
2022-09-26T22:53:45.486Z,9.32
2022-09-26T22:56:13.766Z,9.80
2022-09-26T22:58:43.521Z,9.35
2022-09-26T23:01:13.734Z,9.55
2022-09-26T23:03:41.223Z,9.23
2022-09-26T23:06:09.171Z,8.63
2022-09-26T23:08:36.629Z,9.65
2022-09-26T23:11:04.855Z,8.43
2022-09-26T23:13:32.719Z,8.77
2022-09-26T23:16:05.714Z,9.00
2022-09-26T23:18:34.666Z,9.70
2022-09-26T23:21:06.445Z,9.02
2022-09-26T23:23:33.671Z,9.27
2022-09-26T23:26:00.657Z,8.43
2022-09-26T23:28:28.181Z,8.35
2022-09-26T23:30:55.000Z,8.75
2022-09-26T23:33:21.856Z,9.27
2022-09-26T23:35:57.667Z,9.48
2022-09-26T23:40:51.851Z,8.52
2022-09-26T23:43:19.263Z,8.73
2022-09-26T23:45:46.205Z,8.60
2022-09-26T23:48:13.006Z,8.88
2022-09-26T23:50:39.998Z,8.35
2022-09-26T23:53:07.876Z,8.38
2022-09-26T23:55:34.841Z,9.02
2022-09-26T23:58:01.811Z,8.50
